Time;durP1;ratioP1;P1;durP2;ratioP2;P2;SDS_P1;SDS_P2;PMS_P1;PMS_P2;Temp;Humidity;BMP_temperature;BMP_pressure;BME280_temperature;BME280_humidity;BME280_pressure;Samples;Min_cycle;Max_cycle;Signal;HPM_P1;HPM_P2
2023/01/03 00:01:31;;;;;;;14.30;9.23;;;6.70;99.90;;;;;;5054249;28;20484;-77
2023/01/03 00:04:00;;;;;;;12.07;9.60;;;6.70;99.90;;;;;;5035623;28;20444;-78
2023/01/03 00:06:30;;;;;;;11.93;9.60;;;6.70;99.90;;;;;;5035851;28;20486;-77
2023/01/03 00:08:59;;;;;;;15.03;9.73;;;6.70;99.90;;;;;;5036021;28;20494;-78
2023/01/03 00:14:16;;;;;;;11.33;9.70;;;6.60;99.90;;;;;;5035770;28;20525;-76
2023/01/03 00:16:47;;;;;;;13.67;10.17;;;6.60;99.90;;;;;;5053223;28;20475;-78
2023/01/03 00:19:15;;;;;;;12.70;9.83;;;6.60;99.90;;;;;;5053098;28;20438;-75
2023/01/03 00:21:43;;;;;;;11.10;9.40;;;6.60;99.90;;;;;;5034986;28;20464;-76
2023/01/03 00:24:12;;;;;;;12.63;9.80;;;6.60;99.90;;;;;;5035331;28;20456;-77
2023/01/03 00:26:41;;;;;;;11.27;9.87;;;6.50;99.90;;;;;;5035354;28;20571;-77
2023/01/03 00:29:10;;;;;;;13.93;10.00;;;6.50;99.90;;;;;;5035194;28;20446;-77
2023/01/03 00:31:39;;;;;;;17.10;11.10;;;6.50;99.90;;;;;;5051818;28;20450;-77
2023/01/03 00:34:09;;;;;;;14.73;9.67;;;6.50;99.90;;;;;;5053798;28;20467;-76
2023/01/03 00:36:38;;;;;;;12.30;9.60;;;6.50;99.90;;;;;;5037945;28;20865;-76
2023/01/03 00:39:07;;;;;;;12.43;10.70;;;6.50;99.90;;;;;;5056828;28;20448;-76
2023/01/03 00:41:35;;;;;;;12.93;10.40;;;6.50;99.90;;;;;;5055628;28;20883;-77
2023/01/03 00:44:04;;;;;;;14.07;12.00;;;6.40;99.90;;;;;;5057276;28;20445;-78
2023/01/03 00:46:32;;;;;;;12.53;10.87;;;6.40;99.90;;;;;;5038875;28;20843;-78
2023/01/03 00:49:00;;;;;;;13.87;10.67;;;6.40;99.90;;;;;;5056741;28;20450;-75
2023/01/03 00:51:32;;;;;;;11.73;9.17;;;6.40;99.90;;;;;;5055474;28;20456;-76
2023/01/03 00:54:02;;;;;;;13.20;10.37;;;6.40;99.90;;;;;;5039219;28;20438;-78
2023/01/03 00:56:32;;;;;;;13.60;10.33;;;6.40;99.90;;;;;;5039449;28;20481;-77
2023/01/03 00:59:00;;;;;;;11.83;9.80;;;6.30;99.90;;;;;;5057063;28;20434;-76
2023/01/03 01:01:31;;;;;;;13.17;9.87;;;6.30;99.90;;;;;;5055217;28;20469;-76
2023/01/03 01:04:06;;;;;;;10.83;9.70;;;6.30;99.90;;;;;;5038483;28;20484;-76
2023/01/03 01:06:38;;;;;;;12.20;10.63;;;6.30;99.90;;;;;;5038490;28;20503;-77
2023/01/03 01:09:09;;;;;;;12.40;9.50;;;6.30;99.90;;;;;;5038681;28;20472;-78
2023/01/03 01:11:39;;;;;;;13.23;10.10;;;6.20;99.90;;;;;;5038464;28;20537;-76
2023/01/03 01:14:18;;;;;;;17.57;10.50;;;6.20;99.90;;;;;;5057181;28;20449;-77
2023/01/03 01:16:48;;;;;;;14.00;9.33;;;6.20;99.90;;;;;;5057556;28;20465;-77
2023/01/03 01:19:17;;;;;;;11.43;9.50;;;6.20;99.90;;;;;;5038433;28;20439;-77
2023/01/03 01:21:47;;;;;;;12.97;10.43;;;6.20;99.90;;;;;;5056182;28;20471;-77
2023/01/03 01:24:15;;;;;;;12.37;9.40;;;6.20;99.90;;;;;;5056805;28;20945;-77
2023/01/03 01:26:45;;;;;;;13.53;9.87;;;6.20;99.90;;;;;;5038320;28;20568;-77
2023/01/03 01:29:15;;;;;;;10.80;9.30;;;6.20;99.90;;;;;;5056894;28;20439;-78
2023/01/03 01:31:45;;;;;;;16.53;8.93;;;6.20;99.90;;;;;;5056239;28;20449;-76
2023/01/03 01:34:14;;;;;;;10.20;9.07;;;6.20;99.90;;;;;;5056119;28;20825;-78
2023/01/03 01:36:43;;;;;;;10.57;9.07;;;6.10;99.90;;;;;;5037836;28;20471;-75
2023/01/03 01:39:14;;;;;;;13.70;9.60;;;6.10;99.90;;;;;;5037880;28;20952;-76
2023/01/03 01:44:43;;;;;;;12.23;8.93;;;6.10;99.90;;;;;;5056142;28;20440;-76
2023/01/03 01:47:16;;;;;;;12.33;10.03;;;6.00;99.90;;;;;;5036902;28;20486;-76
2023/01/03 01:49:45;;;;;;;14.77;10.47;;;6.10;99.90;;;;;;5037775;28;20468;-76
2023/01/03 01:52:14;;;;;;;12.70;9.00;;;6.10;99.90;;;;;;5055852;28;20949;-75
2023/01/03 01:54:45;;;;;;;13.70;9.67;;;6.00;99.90;;;;;;5037646;28;20987;-78
2023/01/03 01:57:16;;;;;;;13.00;9.90;;;6.00;99.90;;;;;;5056466;28;20498;-77
2023/01/03 01:59:45;;;;;;;10.43;9.43;;;6.00;99.90;;;;;;5037756;28;20443;-76
2023/01/03 02:02:16;;;;;;;13.93;9.77;;;6.00;99.90;;;;;;5037804;28;20841;-77
2023/01/03 02:04:46;;;;;;;12.53;9.83;;;6.00;99.90;;;;;;5039115;28;20439;-78
2023/01/03 02:07:16;;;;;;;11.20;10.00;;;6.00;99.90;;;;;;5037660;28;20563;-78
2023/01/03 02:09:47;;;;;;;13.43;10.10;;;6.00;99.90;;;;;;5055827;28;20434;-76
2023/01/03 02:15:17;;;;;;;11.00;9.80;;;5.90;99.90;;;;;;5055800;28;20458;-77
2023/01/03 02:17:54;;;;;;;13.97;11.07;;;5.90;99.90;;;;;;5037298;28;20465;-77
2023/01/03 02:20:35;;;;;;;12.63;10.60;;;5.90;99.90;;;;;;5055555;28;20510;-77
2023/01/03 02:23:38;;;;;;;12.17;10.80;;;5.90;99.90;;;;;;5055243;28;20545;-76
2023/01/03 02:26:44;;;;;;;12.90;10.60;;;5.90;99.90;;;;;;5055826;28;20458;-77
2023/01/03 02:29:29;;;;;;;13.07;11.20;;;5.90;99.90;;;;;;5037232;28;20462;-77
2023/01/03 02:32:04;;;;;;;15.40;11.03;;;5.80;99.90;;;;;;5037054;28;20443;-77
2023/01/03 02:34:39;;;;;;;12.70;11.43;;;5.80;99.90;;;;;;5053964;28;20909;-78
2023/01/03 02:37:15;;;;;;;15.50;10.97;;;5.80;99.90;;;;;;5037298;28;20463;-76
2023/01/03 02:39:53;;;;;;;15.20;11.17;;;5.80;99.90;;;;;;5036817;28;20927;-75
2023/01/03 02:45:17;;;;;;;18.47;11.43;;;5.80;99.90;;;;;;5037710;28;20474;-78
2023/01/03 02:47:53;;;;;;;15.03;11.87;;;5.70;99.90;;;;;;5037039;28;20446;-77
2023/01/03 02:50:27;;;;;;;13.47;11.27;;;5.70;99.90;;;;;;5036719;28;20909;-77
2023/01/03 02:53:01;;;;;;;16.03;12.07;;;5.70;99.90;;;;;;5036748;28;20533;-76
2023/01/03 02:55:32;;;;;;;16.30;12.30;;;5.70;99.90;;;;;;5053572;28;20468;-77
2023/01/03 02:58:05;;;;;;;15.07;13.23;;;5.60;99.90;;;;;;5036704;28;20958;-77
2023/01/03 03:00:40;;;;;;;14.83;11.00;;;5.60;99.90;;;;;;5053469;28;20430;-77
2023/01/03 03:03:14;;;;;;;15.90;13.60;;;5.60;99.90;;;;;;5036459;28;20519;-77
2023/01/03 03:05:47;;;;;;;14.40;11.67;;;5.60;99.90;;;;;;5036767;28;20466;-77
2023/01/03 03:08:15;;;;;;;15.53;12.07;;;5.60;99.90;;;;;;5054131;28;20435;-77
2023/01/03 03:13:38;;;;;;;17.07;13.43;;;5.40;99.90;;;;;;5036576;28;20797;-77
2023/01/03 03:16:12;;;;;;;15.47;12.60;;;5.50;99.90;;;;;;5036131;28;20469;-77
2023/01/03 03:18:51;;;;;;;14.20;12.70;;;5.50;99.90;;;;;;5036250;28;20791;-77
2023/01/03 03:28:33;;;;;;;17.73;13.37;;;5.40;99.90;;;;;;5018246;28;20539;-77
2023/01/03 03:29:59;;;;;;;14.83;12.00;;;5.40;99.90;;;;;;5036813;28;20450;-77
2023/01/03 03:32:29;;;;;;;17.10;12.27;;;5.30;99.90;;;;;;5053034;28;20434;-77
2023/01/03 03:35:03;;;;;;;16.80;13.40;;;5.30;99.90;;;;;;5037264;28;20840;-77
2023/01/03 03:37:35;;;;;;;15.83;11.90;;;5.30;99.90;;;;;;5052829;28;20446;-77
2023/01/03 03:45:49;;;;;;;12.97;11.43;;;5.30;99.90;;;;;;5036178;28;20516;-77
2023/01/03 03:48:22;;;;;;;17.37;12.77;;;5.20;99.90;;;;;;5053824;28;20419;-77
2023/01/03 03:50:57;;;;;;;14.67;12.70;;;5.20;99.90;;;;;;5035827;28;20462;-77
2023/01/03 03:53:32;;;;;;;19.90;12.53;;;5.20;99.90;;;;;;5053883;28;20517;-77
2023/01/03 03:56:07;;;;;;;15.37;12.33;;;5.20;99.90;;;;;;5053749;28;20461;-77
2023/01/03 03:58:39;;;;;;;17.90;13.13;;;5.20;99.90;;;;;;5053968;28;20417;-77
2023/01/03 04:01:11;;;;;;;16.43;13.03;;;5.30;99.90;;;;;;5054056;28;20967;-77
2023/01/03 04:03:42;;;;;;;15.73;13.40;;;5.10;99.90;;;;;;5035821;28;20524;-77
2023/01/03 04:06:18;;;;;;;18.20;13.47;;;5.10;99.90;;;;;;5036025;28;20982;-77
2023/01/03 04:08:47;;;;;;;18.10;12.70;;;5.10;99.90;;;;;;5038966;28;20820;-77
2023/01/03 04:11:15;;;;;;;14.10;12.60;;;5.10;99.90;;;;;;5056226;28;20442;-77
2023/01/03 04:13:43;;;;;;;14.83;12.90;;;5.00;99.90;;;;;;5056795;28;20446;-77
2023/01/03 04:16:12;;;;;;;16.97;13.00;;;5.10;99.90;;;;;;5054431;28;20963;-77
2023/01/03 04:18:40;;;;;;;20.40;13.97;;;5.00;99.90;;;;;;5053427;28;20450;-77
2023/01/03 04:21:08;;;;;;;15.70;13.80;;;5.00;99.90;;;;;;5035474;28;20966;-77
2023/01/03 04:23:43;;;;;;;16.43;14.40;;;5.00;99.90;;;;;;5053622;28;20465;-77
2023/01/03 04:26:12;;;;;;;15.40;13.33;;;4.90;99.90;;;;;;5052246;28;20470;-77
2023/01/03 04:28:40;;;;;;;16.63;13.40;;;4.90;99.90;;;;;;5052095;28;20533;-77
2023/01/03 04:31:08;;;;;;;14.03;12.53;;;4.90;99.90;;;;;;5035374;28;20450;-77
2023/01/03 04:33:36;;;;;;;15.20;13.50;;;4.90;99.90;;;;;;5035411;28;21104;-77
2023/01/03 04:36:05;;;;;;;15.03;13.43;;;4.80;99.90;;;;;;5035333;28;20473;-77
2023/01/03 04:38:33;;;;;;;15.53;12.90;;;4.80;99.90;;;;;;5035397;28;20453;-77
2023/01/03 04:41:06;;;;;;;17.70;13.23;;;4.80;99.90;;;;;;5053441;28;20437;-77
2023/01/03 04:46:20;;;;;;;15.77;12.50;;;4.70;99.90;;;;;;5053512;28;20804;-77
2023/01/03 04:48:48;;;;;;;16.57;13.30;;;4.70;99.90;;;;;;5035261;28;20446;-77
2023/01/03 04:51:16;;;;;;;13.93;12.10;;;4.70;99.90;;;;;;5052034;28;20446;-77
2023/01/03 04:53:44;;;;;;;14.97;12.33;;;4.60;99.90;;;;;;5053345;28;20444;-77
2023/01/03 04:56:14;;;;;;;18.33;14.30;;;4.60;99.90;;;;;;5053303;28;20456;-77
2023/01/03 04:58:43;;;;;;;17.20;12.70;;;4.60;99.90;;;;;;5035580;28;20798;-77
2023/01/03 05:01:11;;;;;;;19.77;13.30;;;4.60;99.90;;;;;;5053432;28;20428;-77
2023/01/03 05:03:39;;;;;;;16.90;12.40;;;4.50;99.90;;;;;;5051780;28;20466;-77
2023/01/03 05:06:10;;;;;;;14.17;12.67;;;4.50;99.90;;;;;;5051887;28;20501;-77
2023/01/03 05:08:39;;;;;;;15.40;12.87;;;4.50;99.90;;;;;;5035488;28;20496;-77
2023/01/03 05:11:07;;;;;;;17.13;13.17;;;4.50;99.90;;;;;;5035298;28;20446;-77
2023/01/03 05:13:37;;;;;;;17.80;14.40;;;4.50;99.90;;;;;;5052173;28;20457;-77
2023/01/03 05:16:06;;;;;;;16.90;13.00;;;4.50;99.90;;;;;;5051774;28;20478;-77
2023/01/03 05:18:35;;;;;;;15.50;13.70;;;4.40;99.90;;;;;;5035132;28;20464;-77
2023/01/03 05:26:40;;;;;;;18.13;13.30;;;4.40;99.90;;;;;;5038486;28;20466;-77
2023/01/03 05:29:11;;;;;;;19.97;14.47;;;4.30;99.90;;;;;;5038329;28;20806;-77
2023/01/03 05:31:39;;;;;;;17.40;13.83;;;4.30;99.90;;;;;;5055188;28;20469;-77
2023/01/03 05:34:07;;;;;;;19.40;14.80;;;4.30;99.90;;;;;;5056113;28;20449;-77
2023/01/03 05:36:35;;;;;;;15.83;13.60;;;4.30;99.90;;;;;;5056041;28;20458;-77
2023/01/03 05:39:04;;;;;;;17.40;13.20;;;4.30;99.90;;;;;;5056122;28;20453;-77
2023/01/03 05:44:20;;;;;;;20.63;14.60;;;4.30;99.90;;;;;;5055995;28;20538;-77
2023/01/03 05:46:49;;;;;;;16.57;14.03;;;4.30;99.90;;;;;;5054639;28;20485;-77
2023/01/03 05:49:17;;;;;;;17.57;15.20;;;4.30;99.90;;;;;;5056169;28;20987;-78
2023/01/03 05:51:45;;;;;;;16.23;14.43;;;4.30;99.90;;;;;;5038156;28;20481;-77
2023/01/03 05:54:16;;;;;;;17.50;14.80;;;4.30;99.90;;;;;;5055885;28;20470;-77
2023/01/03 05:56:44;;;;;;;18.03;14.63;;;4.20;99.90;;;;;;5038215;28;20470;-77
2023/01/03 05:59:13;;;;;;;17.83;14.20;;;4.30;99.90;;;;;;5055927;28;20438;-77
2023/01/03 06:01:42;;;;;;;20.40;15.50;;;4.30;99.90;;;;;;5056000;28;20476;-77
2023/01/03 06:04:10;;;;;;;18.00;14.87;;;4.20;99.90;;;;;;5055603;28;21009;-77
2023/01/03 06:06:39;;;;;;;18.17;14.57;;;4.20;99.90;;;;;;5055539;28;20492;-77
2023/01/03 06:09:07;;;;;;;19.70;14.50;;;4.20;99.90;;;;;;5054654;28;20994;-77
2023/01/03 06:11:35;;;;;;;17.87;14.50;;;4.20;99.90;;;;;;5055736;28;20850;-77
2023/01/03 06:14:03;;;;;;;17.60;15.07;;;4.20;99.90;;;;;;5054484;28;20438;-77
2023/01/03 06:19:18;;;;;;;18.77;14.30;;;4.20;99.90;;;;;;5037694;28;20446;-77
2023/01/03 06:21:46;;;;;;;20.17;14.53;;;4.20;99.90;;;;;;5037663;28;20866;-77
2023/01/03 06:24:14;;;;;;;17.73;14.93;;;4.10;99.90;;;;;;5038265;28;20477;-77
2023/01/03 06:26:42;;;;;;;20.20;15.43;;;4.10;99.90;;;;;;5038871;28;20473;-77
2023/01/03 06:29:10;;;;;;;20.40;15.80;;;4.10;99.90;;;;;;5056210;28;20870;-77
2023/01/03 06:31:39;;;;;;;20.30;16.80;;;4.10;99.90;;;;;;5055573;28;20446;-77
2023/01/03 06:34:07;;;;;;;23.00;17.90;;;4.10;99.90;;;;;;5037322;28;20481;-77
2023/01/03 06:36:36;;;;;;;22.60;17.77;;;4.10;99.90;;;;;;5037955;28;20877;-77
2023/01/03 06:39:05;;;;;;;22.77;18.50;;;4.20;99.90;;;;;;5037762;28;20507;-77
2023/01/03 06:41:33;;;;;;;23.17;19.70;;;4.20;99.90;;;;;;5055802;28;20448;-77
2023/01/03 06:44:01;;;;;;;22.67;18.63;;;4.20;99.90;;;;;;5038073;28;20908;-77
2023/01/03 06:54:53;;;;;;;22.97;20.10;;;4.20;99.90;;;;;;5037094;28;20455;-77
2023/01/03 06:57:21;;;;;;;30.20;21.70;;;4.20;99.90;;;;;;5055116;28;20434;-77
2023/01/03 06:59:54;;;;;;;27.83;21.53;;;4.20;99.90;;;;;;5053988;28;20438;-77
2023/01/03 07:02:22;;;;;;;25.40;21.27;;;4.20;99.90;;;;;;5055260;28;20430;-77
2023/01/03 07:04:51;;;;;;;27.90;21.97;;;4.30;99.90;;;;;;5054809;28;20462;-77
2023/01/03 07:07:21;;;;;;;29.40;21.37;;;4.30;99.90;;;;;;5055356;28;20474;-77
2023/01/03 07:09:49;;;;;;;26.57;21.20;;;4.30;99.90;;;;;;5037169;28;20457;-77
2023/01/03 07:15:05;;;;;;;29.40;22.03;;;4.30;99.90;;;;;;5036975;28;20947;-77
2023/01/03 07:17:33;;;;;;;29.73;23.50;;;4.40;99.90;;;;;;5037120;28;20445;-77
2023/01/03 07:20:01;;;;;;;41.50;24.00;;;4.40;99.90;;;;;;5053512;28;20459;-77
2023/01/03 07:22:31;;;;;;;30.60;22.57;;;4.40;99.90;;;;;;5053692;28;20446;-77
2023/01/03 07:24:59;;;;;;;27.97;22.47;;;4.40;99.90;;;;;;5036714;28;20465;-77
2023/01/03 07:27:27;;;;;;;31.17;24.17;;;4.40;99.90;;;;;;5055282;28;20458;-77
2023/01/03 07:29:55;;;;;;;28.77;23.60;;;4.40;99.90;;;;;;5055064;28;20452;-77
2023/01/03 07:32:24;;;;;;;33.03;24.57;;;4.40;99.90;;;;;;5053551;28;20485;-77
2023/01/03 07:34:52;;;;;;;34.43;25.80;;;4.50;99.90;;;;;;5037054;28;20936;-77
2023/01/03 07:37:20;;;;;;;30.00;26.37;;;4.50;99.90;;;;;;5036734;28;20450;-77
2023/01/03 07:39:50;;;;;;;35.90;26.70;;;4.50;99.90;;;;;;5052450;28;20497;-77
2023/01/03 07:45:04;;;;;;;35.77;28.30;;;4.50;99.90;;;;;;5051712;28;20471;-77
2023/01/03 07:47:33;;;;;;;37.20;28.20;;;4.50;99.90;;;;;;5053625;28;20448;-77
2023/01/03 07:50:01;;;;;;;37.53;29.37;;;4.50;99.90;;;;;;5035527;28;20452;-77
2023/01/03 07:52:29;;;;;;;35.33;28.23;;;4.50;99.90;;;;;;5035880;28;20529;-77
2023/01/03 07:54:58;;;;;;;36.67;29.40;;;4.50;99.90;;;;;;5035599;28;20451;-77
2023/01/03 07:57:26;;;;;;;40.67;30.47;;;4.50;99.90;;;;;;5053478;28;21017;-77
2023/01/03 07:59:55;;;;;;;42.87;32.40;;;4.50;99.90;;;;;;5053567;28;20993;-77
2023/01/03 08:02:23;;;;;;;40.57;31.50;;;4.50;99.90;;;;;;5035923;28;20442;-77
2023/01/03 08:04:51;;;;;;;43.27;30.97;;;4.50;99.90;;;;;;5053420;28;20469;-76
2023/01/03 08:07:19;;;;;;;37.50;29.47;;;4.50;99.90;;;;;;5053742;28;20561;-77
2023/01/03 08:15:20;;;;;;;41.50;30.10;;;4.60;99.90;;;;;;5053904;28;20492;-77
2023/01/03 08:17:48;;;;;;;43.60;32.50;;;4.60;99.90;;;;;;5053357;28;20449;-77
2023/01/03 08:20:16;;;;;;;42.10;31.83;;;4.60;99.90;;;;;;5053563;28;20434;-77
2023/01/03 08:22:44;;;;;;;38.13;29.50;;;4.60;99.90;;;;;;5035920;28;20453;-77
2023/01/03 08:25:12;;;;;;;39.97;29.67;;;4.70;99.90;;;;;;5036002;28;20470;-77
2023/01/03 08:27:42;;;;;;;35.80;29.70;;;4.60;99.90;;;;;;5053842;28;20441;-77
2023/01/03 08:30:17;;;;;;;40.60;31.10;;;4.70;99.90;;;;;;5053804;28;20428;-78
2023/01/03 08:32:46;;;;;;;41.90;32.37;;;4.70;99.90;;;;;;5035592;28;20503;-77
2023/01/03 08:35:14;;;;;;;37.93;30.63;;;4.70;99.90;;;;;;5053663;28;20470;-77
2023/01/03 08:37:43;;;;;;;38.60;31.90;;;4.70;99.90;;;;;;5052780;28;20452;-77
2023/01/03 08:40:14;;;;;;;41.20;34.00;;;4.70;99.90;;;;;;5053754;28;20445;-79
2023/01/03 08:42:45;;;;;;;38.90;31.77;;;4.80;99.90;;;;;;5053132;28;21027;-77
2023/01/03 08:45:16;;;;;;;36.70;30.70;;;4.70;99.90;;;;;;5053632;28;20482;-77
2023/01/03 08:47:45;;;;;;;38.53;31.40;;;4.80;99.90;;;;;;5035786;28;20438;-79
2023/01/03 08:50:14;;;;;;;37.20;32.00;;;4.70;99.90;;;;;;5053943;28;20457;-77
2023/01/03 08:52:42;;;;;;;34.90;29.03;;;4.70;99.90;;;;;;5053950;28;20419;-77
2023/01/03 08:55:10;;;;;;;37.70;29.60;;;4.60;99.90;;;;;;5035707;28;20890;-77
2023/01/03 08:57:39;;;;;;;36.20;28.33;;;4.60;99.90;;;;;;5054923;28;20454;-77
2023/01/03 09:00:10;;;;;;;37.57;29.37;;;4.60;99.90;;;;;;5056003;28;20453;-77
2023/01/03 09:02:39;;;;;;;39.87;29.50;;;4.60;99.90;;;;;;5039517;28;20449;-77
2023/01/03 09:05:08;;;;;;;39.57;30.77;;;4.60;99.90;;;;;;5039300;28;20458;-77
2023/01/03 09:07:36;;;;;;;36.87;28.33;;;4.50;99.90;;;;;;5039974;28;20457;-77
2023/01/03 09:10:05;;;;;;;41.53;30.73;;;4.50;99.90;;;;;;5057044;28;20442;-77
2023/01/03 09:12:33;;;;;;;31.93;24.83;;;4.50;99.90;;;;;;5039004;28;20449;-77
2023/01/03 09:15:02;;;;;;;36.30;29.00;;;4.50;99.90;;;;;;5038747;28;20468;-77
2023/01/03 09:17:31;;;;;;;40.20;30.60;;;4.50;99.90;;;;;;5055493;28;20784;-77
2023/01/03 09:19:59;;;;;;;40.13;31.00;;;4.50;99.90;;;;;;5056734;28;20445;-77
2023/01/03 09:22:28;;;;;;;39.73;30.53;;;4.50;99.90;;;;;;5038748;28;20807;-77
2023/01/03 09:24:56;;;;;;;40.70;31.50;;;4.50;99.90;;;;;;5055251;28;20487;-77
2023/01/03 09:27:24;;;;;;;40.67;30.80;;;4.50;99.90;;;;;;5056689;28;20520;-77
2023/01/03 09:29:52;;;;;;;41.10;30.57;;;4.50;99.90;;;;;;5038588;28;20948;-77
2023/01/03 09:32:20;;;;;;;38.90;29.80;;;4.50;99.90;;;;;;5038731;28;20450;-77
2023/01/03 09:34:50;;;;;;;44.60;31.60;;;4.50;99.90;;;;;;5055430;28;20450;-77
2023/01/03 09:37:18;;;;;;;38.60;29.80;;;4.50;99.90;;;;;;5038621;28;20453;-77
2023/01/03 09:39:46;;;;;;;39.47;30.13;;;4.50;99.90;;;;;;5055130;28;20450;-77
2023/01/03 09:45:07;;;;;;;37.20;31.00;;;4.50;99.90;;;;;;5038437;28;20474;-77
2023/01/03 09:47:37;;;;;;;35.83;28.80;;;4.50;99.90;;;;;;5056144;28;20458;-77
2023/01/03 09:50:16;;;;;;;34.70;27.60;;;4.50;99.90;;;;;;5038424;28;20446;-77
2023/01/03 10:05:06;;;;;;;41.23;30.50;;;4.60;99.90;;;;;;5038289;28;20450;-77
2023/01/03 10:07:55;;;;;;;41.37;32.53;;;4.60;99.90;;;;;;5054620;28;20494;-77
2023/01/03 10:10:32;;;;;;;39.40;32.03;;;4.60;99.90;;;;;;5037799;28;20438;-77
2023/01/03 10:13:13;;;;;;;43.10;32.33;;;4.60;99.90;;;;;;5037686;28;20438;-77
2023/01/03 10:16:09;;;;;;;46.20;35.03;;;4.60;99.90;;;;;;5056487;28;20461;-77
2023/01/03 10:18:54;;;;;;;42.97;34.47;;;4.70;99.90;;;;;;5056972;28;20430;-76
2023/01/03 10:21:31;;;;;;;43.60;34.20;;;4.70;99.90;;;;;;5057407;28;20549;-77
2023/01/03 10:24:01;;;;;;;41.80;34.37;;;4.80;99.90;;;;;;5054070;28;20453;-77
2023/01/03 10:26:32;;;;;;;48.30;36.90;;;4.80;99.90;;;;;;5037706;28;20470;-77
2023/01/03 10:29:01;;;;;;;50.07;38.30;;;4.90;99.90;;;;;;5037465;28;20537;-77
2023/01/03 10:31:43;;;;;;;52.60;39.37;;;4.90;99.90;;;;;;5055237;28;20492;-77
2023/01/03 10:34:11;;;;;;;48.70;38.27;;;5.00;99.90;;;;;;5037204;28;20443;-77
2023/01/03 10:36:39;;;;;;;46.97;38.43;;;5.00;99.90;;;;;;5037141;28;20470;-77
2023/01/03 10:39:11;;;;;;;48.83;38.47;;;5.00;99.90;;;;;;5053552;28;20438;-77
2023/01/03 10:41:44;;;;;;;49.50;39.07;;;5.10;99.90;;;;;;5037107;28;20914;-77
2023/01/03 10:44:24;;;;;;;47.43;39.80;;;5.10;99.90;;;;;;5053875;28;20434;-77
2023/01/03 10:46:55;;;;;;;52.17;40.93;;;5.10;99.90;;;;;;5037261;28;20995;-76
2023/01/03 10:49:25;;;;;;;44.60;37.03;;;5.20;99.90;;;;;;5053338;28;20812;-76
2023/01/03 10:52:00;;;;;;;43.40;36.93;;;5.30;99.90;;;;;;5054426;28;20464;-77
2023/01/03 10:54:45;;;;;;;40.37;34.53;;;5.30;99.90;;;;;;5054664;28;20426;-76
2023/01/03 10:57:36;;;;;;;43.07;35.63;;;5.30;99.90;;;;;;5053233;28;20837;-76
2023/01/03 11:00:22;;;;;;;39.40;33.37;;;5.40;99.90;;;;;;5036502;28;20512;-76
2023/01/03 11:02:51;;;;;;;38.40;32.40;;;5.40;99.90;;;;;;5053371;28;20442;-77
2023/01/03 11:05:21;;;;;;;39.17;34.33;;;5.40;99.90;;;;;;5037188;28;20469;-77
2023/01/03 11:07:55;;;;;;;43.10;35.57;;;5.40;99.90;;;;;;5054683;28;20480;-77
2023/01/03 11:10:31;;;;;;;38.00;33.20;;;5.50;99.90;;;;;;5036389;28;20473;-76
2023/01/03 11:12:59;;;;;;;41.53;34.90;;;5.50;99.90;;;;;;5036747;28;20496;-78
2023/01/03 11:15:36;;;;;;;42.90;37.10;;;5.60;99.90;;;;;;5053874;28;20503;-75
2023/01/03 11:18:19;;;;;;;39.63;35.07;;;5.60;99.90;;;;;;5036305;28;20438;-76
2023/01/03 11:20:53;;;;;;;38.93;34.13;;;5.60;99.90;;;;;;5037610;28;20450;-76
2023/01/03 11:23:30;;;;;;;39.30;34.83;;;5.70;99.90;;;;;;5054560;28;20423;-76
2023/01/03 11:26:07;;;;;;;39.60;35.27;;;5.70;99.90;;;;;;5036047;28;21044;-76
2023/01/03 11:28:54;;;;;;;37.70;33.53;;;5.70;99.90;;;;;;5052856;28;20529;-76
2023/01/03 11:31:37;;;;;;;39.60;33.80;;;5.70;99.90;;;;;;5054991;28;20449;-77
2023/01/03 11:34:25;;;;;;;39.47;34.93;;;5.70;99.90;;;;;;5056145;28;20438;-78
2023/01/03 11:37:00;;;;;;;40.33;34.53;;;5.80;99.90;;;;;;5040064;28;20466;-77
2023/01/03 11:39:43;;;;;;;39.10;34.00;;;5.80;99.90;;;;;;5056796;28;20465;-77
2023/01/03 11:42:33;;;;;;;38.63;34.37;;;5.90;99.90;;;;;;5054657;28;20461;-76
2023/01/03 11:45:50;;;;;;;38.73;34.60;;;5.90;99.90;;;;;;5037767;28;20443;-77
2023/01/03 11:48:45;;;;;;;37.73;33.63;;;6.00;99.90;;;;;;5037623;28;20508;-77
2023/01/03 11:51:17;;;;;;;40.47;36.00;;;6.00;99.90;;;;;;5053589;28;20555;-77
2023/01/03 11:54:01;;;;;;;38.97;34.90;;;6.10;99.90;;;;;;5038096;28;20536;-77
2023/01/03 11:56:34;;;;;;;40.30;35.90;;;6.10;99.90;;;;;;5036504;28;20471;-76
2023/01/03 11:59:28;;;;;;;40.03;34.97;;;6.10;99.90;;;;;;5052125;28;20536;-76
2023/01/03 12:02:33;;;;;;;37.80;33.67;;;6.10;99.90;;;;;;5053906;28;20428;-77
2023/01/03 12:05:19;;;;;;;38.20;34.23;;;6.20;99.90;;;;;;5036454;28;20811;-77
2023/01/03 12:08:00;;;;;;;36.33;32.40;;;6.20;99.90;;;;;;5053847;28;20459;-77
2023/01/03 12:10:39;;;;;;;39.70;35.40;;;6.20;99.90;;;;;;5052263;28;20960;-77
2023/01/03 12:13:17;;;;;;;42.53;38.07;;;6.20;99.90;;;;;;5053367;28;20518;-77
2023/01/03 12:15:57;;;;;;;40.47;36.27;;;6.30;99.90;;;;;;5053887;28;20450;-77
2023/01/03 12:18:35;;;;;;;38.73;34.63;;;6.30;99.90;;;;;;5053659;28;20438;-78
2023/01/03 12:21:10;;;;;;;39.07;35.03;;;6.30;99.90;;;;;;5035538;28;20438;-77
2023/01/03 12:23:44;;;;;;;40.77;36.57;;;6.40;99.90;;;;;;5051961;28;20468;-78
2023/01/03 12:26:16;;;;;;;38.17;34.00;;;6.30;99.90;;;;;;5035711;28;20563;-77
2023/01/03 12:28:52;;;;;;;40.87;36.47;;;6.40;99.90;;;;;;5051981;28;20477;-77
2023/01/03 12:31:27;;;;;;;41.47;37.13;;;6.40;99.90;;;;;;5054408;28;20455;-77
2023/01/03 12:34:09;;;;;;;39.63;35.50;;;6.50;99.90;;;;;;5039601;28;20461;-78
2023/01/03 12:36:43;;;;;;;40.07;35.97;;;6.50;99.90;;;;;;5055869;28;20531;-77
2023/01/03 12:39:38;;;;;;;40.67;36.27;;;6.50;99.90;;;;;;5039546;28;20457;-77
2023/01/03 12:42:14;;;;;;;39.80;35.50;;;6.50;99.90;;;;;;5055907;28;20438;-77
2023/01/03 12:44:45;;;;;;;41.70;37.47;;;6.60;99.90;;;;;;5039324;28;20871;-76
2023/01/03 12:47:24;;;;;;;42.17;37.67;;;6.60;99.90;;;;;;5056998;28;20470;-76
2023/01/03 12:49:58;;;;;;;41.33;37.13;;;6.60;99.90;;;;;;5057053;28;20435;-76
2023/01/03 12:52:28;;;;;;;45.07;40.17;;;6.60;99.90;;;;;;5056961;28;20791;-76
2023/01/03 12:55:01;;;;;;;43.43;39.00;;;6.60;99.90;;;;;;5039089;28;20486;-76
2023/01/03 12:57:54;;;;;;;42.93;38.43;;;6.70;99.90;;;;;;5055352;28;20442;-76
2023/01/03 13:00:41;;;;;;;41.90;37.60;;;6.70;99.90;;;;;;5055842;28;20468;-77
2023/01/03 13:03:21;;;;;;;42.97;38.60;;;6.70;99.90;;;;;;5056455;28;20528;-77
2023/01/03 13:05:54;;;;;;;47.50;42.47;;;6.80;99.90;;;;;;5055660;28;20470;-77
2023/01/03 13:08:31;;;;;;;42.90;38.03;;;6.80;99.90;;;;;;5055670;28;20462;-77
2023/01/03 13:11:02;;;;;;;41.30;37.03;;;6.80;99.90;;;;;;5057088;28;20416;-78
2023/01/03 13:13:31;;;;;;;40.00;35.53;;;6.80;99.90;;;;;;5038517;28;20455;-77
2023/01/03 13:16:20;;;;;;;39.50;35.40;;;6.80;99.90;;;;;;5056795;28;20519;-77
2023/01/03 13:18:50;;;;;;;41.27;35.83;;;6.90;99.90;;;;;;5038428;28;20828;-77
2023/01/03 13:21:50;;;;;;;40.10;35.50;;;6.90;99.90;;;;;;5055185;28;20448;-77
2023/01/03 13:24:39;;;;;;;41.93;37.37;;;6.90;99.90;;;;;;5056445;28;20445;-77
2023/01/03 13:27:37;;;;;;;40.47;36.10;;;6.90;99.90;;;;;;5038255;28;20470;-77
2023/01/03 13:30:21;;;;;;;39.50;34.00;;;6.90;99.90;;;;;;5038399;28;20446;-77
2023/01/03 13:32:54;;;;;;;40.57;36.33;;;6.90;99.90;;;;;;5056755;28;20440;-77
2023/01/03 13:35:36;;;;;;;41.67;37.10;;;6.90;99.90;;;;;;5056282;28;20990;-77
2023/01/03 13:38:20;;;;;;;40.73;36.47;;;6.90;99.90;;;;;;5038452;28;20476;-77
2023/01/03 13:40:56;;;;;;;43.60;39.00;;;6.90;99.90;;;;;;5056461;28;20421;-77
2023/01/03 13:43:48;;;;;;;40.40;36.20;;;6.90;99.90;;;;;;5037384;28;20465;-77
2023/01/03 13:46:23;;;;;;;39.23;35.13;;;7.00;99.90;;;;;;5056766;28;20543;-77
2023/01/03 13:48:56;;;;;;;45.10;40.23;;;6.90;99.90;;;;;;5038337;28;20469;-77
2023/01/03 13:51:49;;;;;;;42.53;38.00;;;7.00;99.90;;;;;;5038371;28;20544;-77
2023/01/03 13:54:36;;;;;;;42.23;37.50;;;7.00;99.90;;;;;;5056124;28;20443;-77
2023/01/03 13:57:26;;;;;;;39.43;35.27;;;7.00;99.90;;;;;;5054669;28;20476;-77
2023/01/03 13:59:57;;;;;;;37.50;33.47;;;7.00;99.90;;;;;;5038251;28;20447;-77
2023/01/03 14:02:54;;;;;;;38.27;34.27;;;7.00;99.90;;;;;;5056098;28;20439;-77
2023/01/03 14:05:49;;;;;;;37.47;33.70;;;7.00;99.90;;;;;;5056182;28;20554;-77
2023/01/03 14:08:30;;;;;;;38.90;34.90;;;7.00;99.90;;;;;;5043022;28;20476;-75
2023/01/03 14:11:33;;;;;;;38.60;34.50;;;7.10;99.90;;;;;;5038240;28;20549;-75
2023/01/03 14:14:06;;;;;;;39.50;35.40;;;7.10;99.90;;;;;;5056041;28;20878;-77
2023/01/03 14:16:45;;;;;;;36.83;32.97;;;6.80;99.90;;;;;;5037987;28;20998;-77
2023/01/03 14:19:19;;;;;;;38.90;34.77;;;7.10;99.90;;;;;;5038256;28;20445;-77
2023/01/03 14:21:51;;;;;;;37.53;33.40;;;7.10;99.90;;;;;;5038371;28;20459;-77
2023/01/03 14:24:25;;;;;;;36.20;32.47;;;7.10;99.90;;;;;;5054799;28;20454;-77